sensor_id;sensor_type;location;lat;lon;timestamp;temperature;humidity
72128;DHT22;60000;51.030;7.024;2023-04-03T00:00:02;1.50;82.24
72128;DHT22;60000;51.030;7.024;2023-04-03T00:02:28;1.50;82.30
72128;DHT22;60000;51.030;7.024;2023-04-03T00:04:53;1.46;82.64
72128;DHT22;60000;51.030;7.024;2023-04-03T00:07:19;1.42;82.75
72128;DHT22;60000;51.030;7.024;2023-04-03T00:09:44;1.42;83.04
72128;DHT22;60000;51.030;7.024;2023-04-03T00:12:10;1.36;83.02
72128;DHT22;60000;51.030;7.024;2023-04-03T00:14:36;1.36;83.01
72128;DHT22;60000;51.030;7.024;2023-04-03T00:17:01;1.36;83.21
72128;DHT22;60000;51.030;7.024;2023-04-03T00:19:26;1.33;83.24
72128;DHT22;60000;51.030;7.024;2023-04-03T00:21:51;1.32;83.25
72128;DHT22;60000;51.030;7.024;2023-04-03T00:24:18;1.29;83.24
72128;DHT22;60000;51.030;7.024;2023-04-03T00:26:44;1.29;83.24
72128;DHT22;60000;51.030;7.024;2023-04-03T00:29:09;1.27;83.30
72128;DHT22;60000;51.030;7.024;2023-04-03T00:31:35;1.23;83.26
72128;DHT22;60000;51.030;7.024;2023-04-03T00:34:00;1.22;83.29
72128;DHT22;60000;51.030;7.024;2023-04-03T00:36:25;1.19;83.34
72128;DHT22;60000;51.030;7.024;2023-04-03T00:38:51;1.17;83.43
72128;DHT22;60000;51.030;7.024;2023-04-03T00:41:16;1.16;83.53
72128;DHT22;60000;51.030;7.024;2023-04-03T00:43:42;1.12;83.52
72128;DHT22;60000;51.030;7.024;2023-04-03T00:46:07;1.12;83.52
72128;DHT22;60000;51.030;7.024;2023-04-03T00:48:42;1.10;83.67
72128;DHT22;60000;51.030;7.024;2023-04-03T00:51:14;1.12;83.59
72128;DHT22;60000;51.030;7.024;2023-04-03T00:53:47;1.05;83.58
72128;DHT22;60000;51.030;7.024;2023-04-03T00:56:17;1.05;83.60
72128;DHT22;60000;51.030;7.024;2023-04-03T00:58:48;1.02;83.68
72128;DHT22;60000;51.030;7.024;2023-04-03T01:01:18;1.02;83.59
72128;DHT22;60000;51.030;7.024;2023-04-03T01:03:45;0.96;83.73
72128;DHT22;60000;51.030;7.024;2023-04-03T01:06:11;0.98;83.71
72128;DHT22;60000;51.030;7.024;2023-04-03T01:08:36;0.95;83.77
72128;DHT22;60000;51.030;7.024;2023-04-03T01:11:02;0.89;83.81
72128;DHT22;60000;51.030;7.024;2023-04-03T01:13:32;0.91;83.96
72128;DHT22;60000;51.030;7.024;2023-04-03T01:16:04;0.88;83.93
72128;DHT22;60000;51.030;7.024;2023-04-03T01:18:31;0.88;83.97
72128;DHT22;60000;51.030;7.024;2023-04-03T01:26:48;0.84;83.92
72128;DHT22;60000;51.030;7.024;2023-04-03T01:29:14;0.84;83.91
72128;DHT22;60000;51.030;7.024;2023-04-03T01:31:56;0.81;83.98
72128;DHT22;60000;51.030;7.024;2023-04-03T01:34:21;0.79;83.98
72128;DHT22;60000;51.030;7.024;2023-04-03T01:36:47;0.78;83.96
72128;DHT22;60000;51.030;7.024;2023-04-03T01:39:12;0.75;83.95
72128;DHT22;60000;51.030;7.024;2023-04-03T01:41:38;0.74;84.19
72128;DHT22;60000;51.030;7.024;2023-04-03T01:44:03;0.75;84.28
72128;DHT22;60000;51.030;7.024;2023-04-03T01:46:29;0.72;84.16
72128;DHT22;60000;51.030;7.024;2023-04-03T01:48:54;0.69;84.09
72128;DHT22;60000;51.030;7.024;2023-04-03T01:51:20;0.65;84.14
72128;DHT22;60000;51.030;7.024;2023-04-03T01:53:45;0.64;84.25
72128;DHT22;60000;51.030;7.024;2023-04-03T01:56:10;0.61;84.30
72128;DHT22;60000;51.030;7.024;2023-04-03T01:58:36;0.61;84.34
72128;DHT22;60000;51.030;7.024;2023-04-03T02:01:02;0.57;84.42
72128;DHT22;60000;51.030;7.024;2023-04-03T02:03:27;0.54;84.43
72128;DHT22;60000;51.030;7.024;2023-04-03T02:05:52;0.53;84.53
72128;DHT22;60000;51.030;7.024;2023-04-03T02:08:18;0.50;84.57
72128;DHT22;60000;51.030;7.024;2023-04-03T02:10:46;0.48;84.64
72128;DHT22;60000;51.030;7.024;2023-04-03T02:13:11;0.46;84.75
72128;DHT22;60000;51.030;7.024;2023-04-03T02:15:40;0.47;84.68
72128;DHT22;60000;51.030;7.024;2023-04-03T02:18:06;0.44;84.80
72128;DHT22;60000;51.030;7.024;2023-04-03T02:20:32;0.46;84.95
72128;DHT22;60000;51.030;7.024;2023-04-03T02:22:58;0.46;85.01
72128;DHT22;60000;51.030;7.024;2023-04-03T02:25:23;0.41;84.93
72128;DHT22;60000;51.030;7.024;2023-04-03T02:27:49;0.38;84.87
72128;DHT22;60000;51.030;7.024;2023-04-03T02:30:14;0.37;84.89
72128;DHT22;60000;51.030;7.024;2023-04-03T02:32:41;0.36;84.97
72128;DHT22;60000;51.030;7.024;2023-04-03T02:35:07;0.34;84.96
72128;DHT22;60000;51.030;7.024;2023-04-03T02:37:33;0.31;85.07
72128;DHT22;60000;51.030;7.024;2023-04-03T02:39:58;0.31;85.11
72128;DHT22;60000;51.030;7.024;2023-04-03T02:42:23;0.27;85.16
72128;DHT22;60000;51.030;7.024;2023-04-03T02:44:49;0.27;85.23
72128;DHT22;60000;51.030;7.024;2023-04-03T02:47:14;0.27;85.34
72128;DHT22;60000;51.030;7.024;2023-04-03T02:49:40;0.26;85.39
72128;DHT22;60000;51.030;7.024;2023-04-03T02:52:05;0.26;85.55
72128;DHT22;60000;51.030;7.024;2023-04-03T02:54:30;0.24;85.54
72128;DHT22;60000;51.030;7.024;2023-04-03T02:56:56;0.24;85.54
72128;DHT22;60000;51.030;7.024;2023-04-03T02:59:22;0.20;85.44
72128;DHT22;60000;51.030;7.024;2023-04-03T03:01:47;0.20;85.43
72128;DHT22;60000;51.030;7.024;2023-04-03T03:04:13;0.17;85.53
72128;DHT22;60000;51.030;7.024;2023-04-03T03:06:38;0.16;85.55
72128;DHT22;60000;51.030;7.024;2023-04-03T03:09:04;0.13;85.40
72128;DHT22;60000;51.030;7.024;2023-04-03T03:11:30;0.16;85.56
72128;DHT22;60000;51.030;7.024;2023-04-03T03:13:56;0.11;85.44
72128;DHT22;60000;51.030;7.024;2023-04-03T03:16:21;0.10;85.25
72128;DHT22;60000;51.030;7.024;2023-04-03T03:18:47;0.05;85.33
72128;DHT22;60000;51.030;7.024;2023-04-03T03:21:12;0.05;85.51
72128;DHT22;60000;51.030;7.024;2023-04-03T03:23:37;0.07;85.73
72128;DHT22;60000;51.030;7.024;2023-04-03T03:26:05;0.10;85.87
72128;DHT22;60000;51.030;7.024;2023-04-03T03:28:31;0.14;85.74
72128;DHT22;60000;51.030;7.024;2023-04-03T03:30:57;0.16;85.48
72128;DHT22;60000;51.030;7.024;2023-04-03T03:33:23;0.18;85.32
72128;DHT22;60000;51.030;7.024;2023-04-03T03:35:48;0.20;85.22
72128;DHT22;60000;51.030;7.024;2023-04-03T03:38:14;0.20;85.04
72128;DHT22;60000;51.030;7.024;2023-04-03T03:40:39;0.21;84.98
72128;DHT22;60000;51.030;7.024;2023-04-03T03:43:05;0.21;84.64
72128;DHT22;60000;51.030;7.024;2023-04-03T03:45:30;0.21;84.48
72128;DHT22;60000;51.030;7.024;2023-04-03T03:47:56;0.21;84.55
72128;DHT22;60000;51.030;7.024;2023-04-03T03:50:21;0.21;84.44
72128;DHT22;60000;51.030;7.024;2023-04-03T03:52:46;0.24;84.22
72128;DHT22;60000;51.030;7.024;2023-04-03T03:55:12;0.23;84.16
72128;DHT22;60000;51.030;7.024;2023-04-03T03:57:37;0.23;84.28
72128;DHT22;60000;51.030;7.024;2023-04-03T04:00:03;0.26;84.07
72128;DHT22;60000;51.030;7.024;2023-04-03T04:02:29;0.31;83.88
72128;DHT22;60000;51.030;7.024;2023-04-03T04:04:55;0.33;83.84
72128;DHT22;60000;51.030;7.024;2023-04-03T04:07:20;0.34;83.59
72128;DHT22;60000;51.030;7.024;2023-04-03T04:09:45;0.36;83.51
72128;DHT22;60000;51.030;7.024;2023-04-03T04:12:11;0.38;83.54
72128;DHT22;60000;51.030;7.024;2023-04-03T04:14:36;0.43;83.38
72128;DHT22;60000;51.030;7.024;2023-04-03T04:17:01;0.46;83.07
72128;DHT22;60000;51.030;7.024;2023-04-03T04:19:27;0.47;82.97
72128;DHT22;60000;51.030;7.024;2023-04-03T04:21:53;0.50;82.76
72128;DHT22;60000;51.030;7.024;2023-04-03T04:24:18;0.51;82.43
72128;DHT22;60000;51.030;7.024;2023-04-03T04:26:44;0.53;82.45
72128;DHT22;60000;51.030;7.024;2023-04-03T04:29:10;0.54;82.32
72128;DHT22;60000;51.030;7.024;2023-04-03T04:31:35;0.60;82.17
72128;DHT22;60000;51.030;7.024;2023-04-03T04:34:00;0.60;81.94
72128;DHT22;60000;51.030;7.024;2023-04-03T04:36:26;0.62;81.89
72128;DHT22;60000;51.030;7.024;2023-04-03T04:38:51;0.65;81.72
72128;DHT22;60000;51.030;7.024;2023-04-03T04:41:19;0.68;81.55
72128;DHT22;60000;51.030;7.024;2023-04-03T04:43:47;0.65;81.44
72128;DHT22;60000;51.030;7.024;2023-04-03T04:46:13;0.65;81.43
72128;DHT22;60000;51.030;7.024;2023-04-03T04:48:38;0.65;81.21
72128;DHT22;60000;51.030;7.024;2023-04-03T04:51:03;0.69;81.14
72128;DHT22;60000;51.030;7.024;2023-04-03T04:53:29;0.67;80.99
72128;DHT22;60000;51.030;7.024;2023-04-03T04:55:54;0.68;80.91
72128;DHT22;60000;51.030;7.024;2023-04-03T04:58:20;0.69;80.89
72128;DHT22;60000;51.030;7.024;2023-04-03T05:00:45;0.71;80.67
72128;DHT22;60000;51.030;7.024;2023-04-03T05:03:11;0.69;80.71
72128;DHT22;60000;51.030;7.024;2023-04-03T05:05:36;0.67;80.73
72128;DHT22;60000;51.030;7.024;2023-04-03T05:08:02;0.68;80.68
72128;DHT22;60000;51.030;7.024;2023-04-03T05:10:28;0.71;80.95
72128;DHT22;60000;51.030;7.024;2023-04-03T05:12:53;0.71;80.73
72128;DHT22;60000;51.030;7.024;2023-04-03T05:15:19;0.74;80.63
72128;DHT22;60000;51.030;7.024;2023-04-03T05:17:44;0.76;80.53
72128;DHT22;60000;51.030;7.024;2023-04-03T05:20:10;0.78;80.59
72128;DHT22;60000;51.030;7.024;2023-04-03T05:22:36;0.78;80.47
72128;DHT22;60000;51.030;7.024;2023-04-03T05:25:01;0.84;80.43
72128;DHT22;60000;51.030;7.024;2023-04-03T05:27:27;0.85;80.34
72128;DHT22;60000;51.030;7.024;2023-04-03T05:29:54;0.86;80.26
72128;DHT22;60000;51.030;7.024;2023-04-03T05:32:20;0.86;80.25
72128;DHT22;60000;51.030;7.024;2023-04-03T05:34:45;0.88;80.14
72128;DHT22;60000;51.030;7.024;2023-04-03T05:37:11;0.88;80.13
72128;DHT22;60000;51.030;7.024;2023-04-03T05:39:36;0.89;80.09
72128;DHT22;60000;51.030;7.024;2023-04-03T05:42:03;0.93;80.06
72128;DHT22;60000;51.030;7.024;2023-04-03T05:44:28;0.95;80.03
72128;DHT22;60000;51.030;7.024;2023-04-03T05:46:54;0.95;79.97
72128;DHT22;60000;51.030;7.024;2023-04-03T05:49:19;0.98;80.08
72128;DHT22;60000;51.030;7.024;2023-04-03T05:51:45;0.99;80.04
72128;DHT22;60000;51.030;7.024;2023-04-03T05:54:17;1.02;80.02
72128;DHT22;60000;51.030;7.024;2023-04-03T05:56:43;1.03;80.01
72128;DHT22;60000;51.030;7.024;2023-04-03T05:59:09;1.07;80.04
72128;DHT22;60000;51.030;7.024;2023-04-03T06:01:34;1.06;80.02
72128;DHT22;60000;51.030;7.024;2023-04-03T06:04:00;1.09;80.12
72128;DHT22;60000;51.030;7.024;2023-04-03T06:06:25;1.12;80.22
72128;DHT22;60000;51.030;7.024;2023-04-03T06:08:51;1.15;80.14
72128;DHT22;60000;51.030;7.024;2023-04-03T06:11:16;1.19;80.10
72128;DHT22;60000;51.030;7.024;2023-04-03T06:13:42;1.22;79.97
72128;DHT22;60000;51.030;7.024;2023-04-03T06:16:12;1.30;79.93
72128;DHT22;60000;51.030;7.024;2023-04-03T06:18:39;1.33;79.55
72128;DHT22;60000;51.030;7.024;2023-04-03T06:21:04;1.40;79.55
72128;DHT22;60000;51.030;7.024;2023-04-03T06:23:30;1.42;79.40
72128;DHT22;60000;51.030;7.024;2023-04-03T06:25:55;1.46;79.28
72128;DHT22;60000;51.030;7.024;2023-04-03T06:28:20;1.53;79.20
72128;DHT22;60000;51.030;7.024;2023-04-03T06:30:46;1.51;79.07
72128;DHT22;60000;51.030;7.024;2023-04-03T06:33:11;1.56;79.01
72128;DHT22;60000;51.030;7.024;2023-04-03T06:35:36;1.63;78.66
72128;DHT22;60000;51.030;7.024;2023-04-03T06:38:03;1.67;78.53
72128;DHT22;60000;51.030;7.024;2023-04-03T06:40:34;1.73;78.16
72128;DHT22;60000;51.030;7.024;2023-04-03T06:43:00;1.77;77.98
72128;DHT22;60000;51.030;7.024;2023-04-03T06:45:26;1.82;77.70
72128;DHT22;60000;51.030;7.024;2023-04-03T06:47:52;1.91;77.55
72128;DHT22;60000;51.030;7.024;2023-04-03T06:50:18;1.95;77.22
72128;DHT22;60000;51.030;7.024;2023-04-03T06:52:43;2.05;76.94
72128;DHT22;60000;51.030;7.024;2023-04-03T06:55:09;2.12;76.60
72128;DHT22;60000;51.030;7.024;2023-04-03T06:57:35;2.22;75.92
72128;DHT22;60000;51.030;7.024;2023-04-03T07:00:00;2.33;75.92
72128;DHT22;60000;51.030;7.024;2023-04-03T07:02:26;2.83;77.72
72128;DHT22;60000;51.030;7.024;2023-04-03T07:04:52;3.34;76.14
72128;DHT22;60000;51.030;7.024;2023-04-03T07:07:17;3.79;73.67
72128;DHT22;60000;51.030;7.024;2023-04-03T07:09:43;4.28;74.27
72128;DHT22;60000;51.030;7.024;2023-04-03T07:12:08;4.68;70.43
72128;DHT22;60000;51.030;7.024;2023-04-03T07:14:33;4.99;68.07
72128;DHT22;60000;51.030;7.024;2023-04-03T07:16:59;5.37;68.39
72128;DHT22;60000;51.030;7.024;2023-04-03T07:19:24;5.81;68.90
72128;DHT22;60000;51.030;7.024;2023-04-03T07:21:53;5.98;64.83
72128;DHT22;60000;51.030;7.024;2023-04-03T07:24:18;6.29;63.26
72128;DHT22;60000;51.030;7.024;2023-04-03T07:26:43;6.78;64.02
72128;DHT22;60000;51.030;7.024;2023-04-03T07:29:10;6.98;58.84
72128;DHT22;60000;51.030;7.024;2023-04-03T07:31:35;7.53;61.62
72128;DHT22;60000;51.030;7.024;2023-04-03T07:34:02;7.81;57.89
72128;DHT22;60000;51.030;7.024;2023-04-03T07:36:27;8.26;58.58
72128;DHT22;60000;51.030;7.024;2023-04-03T07:38:52;8.57;56.30
72128;DHT22;60000;51.030;7.024;2023-04-03T07:41:19;8.57;53.11
72128;DHT22;60000;51.030;7.024;2023-04-03T07:43:47;8.76;52.41
72128;DHT22;60000;51.030;7.024;2023-04-03T07:46:14;8.91;50.65
72128;DHT22;60000;51.030;7.024;2023-04-03T07:48:40;8.91;49.13
72128;DHT22;60000;51.030;7.024;2023-04-03T07:51:05;8.92;49.29
72128;DHT22;60000;51.030;7.024;2023-04-03T07:53:31;9.20;50.85
72128;DHT22;60000;51.030;7.024;2023-04-03T07:55:57;9.38;49.79
72128;DHT22;60000;51.030;7.024;2023-04-03T07:58:23;9.65;50.22
72128;DHT22;60000;51.030;7.024;2023-04-03T08:00:48;9.76;49.74
72128;DHT22;60000;51.030;7.024;2023-04-03T08:03:14;9.85;46.71
72128;DHT22;60000;51.030;7.024;2023-04-03T08:05:42;9.97;47.49
72128;DHT22;60000;51.030;7.024;2023-04-03T08:08:10;10.09;46.24
72128;DHT22;60000;51.030;7.024;2023-04-03T08:10:35;10.57;48.78
72128;DHT22;60000;51.030;7.024;2023-04-03T08:13:01;10.69;45.28
72128;DHT22;60000;51.030;7.024;2023-04-03T08:15:27;10.82;45.78
72128;DHT22;60000;51.030;7.024;2023-04-03T08:17:53;11.10;46.30
72128;DHT22;60000;51.030;7.024;2023-04-03T08:20:18;11.17;44.45
72128;DHT22;60000;51.030;7.024;2023-04-03T08:22:43;11.34;43.23
72128;DHT22;60000;51.030;7.024;2023-04-03T08:25:09;11.31;41.04
72128;DHT22;60000;51.030;7.024;2023-04-03T08:27:34;11.27;42.24
72128;DHT22;60000;51.030;7.024;2023-04-03T08:29:59;11.43;41.36
72128;DHT22;60000;51.030;7.024;2023-04-03T08:32:25;11.51;43.03
72128;DHT22;60000;51.030;7.024;2023-04-03T08:34:51;11.77;41.29
72128;DHT22;60000;51.030;7.024;2023-04-03T08:37:16;12.21;42.04
72128;DHT22;60000;51.030;7.024;2023-04-03T08:39:43;12.11;40.98
72128;DHT22;60000;51.030;7.024;2023-04-03T08:48:00;12.64;37.79
72128;DHT22;60000;51.030;7.024;2023-04-03T08:50:34;12.06;37.12
72128;DHT22;60000;51.030;7.024;2023-04-03T08:53:02;12.18;39.68
72128;DHT22;60000;51.030;7.024;2023-04-03T08:58:14;12.29;38.56
72128;DHT22;60000;51.030;7.024;2023-04-03T09:00:46;12.50;38.20
72128;DHT22;60000;51.030;7.024;2023-04-03T09:03:18;12.37;35.85
72128;DHT22;60000;51.030;7.024;2023-04-03T09:06:03;12.50;37.73
72128;DHT22;60000;51.030;7.024;2023-04-03T09:11:24;12.80;35.04
72128;DHT22;60000;51.030;7.024;2023-04-03T09:16:31;13.01;34.78
72128;DHT22;60000;51.030;7.024;2023-04-03T09:19:28;13.41;34.95
72128;DHT22;60000;51.030;7.024;2023-04-03T09:22:18;13.82;34.68
72128;DHT22;60000;51.030;7.024;2023-04-03T09:25:12;13.61;32.01
72128;DHT22;60000;51.030;7.024;2023-04-03T09:27:38;13.63;31.87
72128;DHT22;60000;51.030;7.024;2023-04-03T09:30:04;13.36;32.89
72128;DHT22;60000;51.030;7.024;2023-04-03T09:32:35;13.42;34.24
72128;DHT22;60000;51.030;7.024;2023-04-03T09:35:06;13.84;36.34
72128;DHT22;60000;51.030;7.024;2023-04-03T09:37:43;14.13;33.32
72128;DHT22;60000;51.030;7.024;2023-04-03T09:40:29;14.38;36.75
72128;DHT22;60000;51.030;7.024;2023-04-03T09:43:00;14.17;32.62
72128;DHT22;60000;51.030;7.024;2023-04-03T09:45:33;13.70;34.86
72128;DHT22;60000;51.030;7.024;2023-04-03T09:48:08;13.83;33.73
72128;DHT22;60000;51.030;7.024;2023-04-03T09:50:35;13.89;33.57
72128;DHT22;60000;51.030;7.024;2023-04-03T09:53:11;13.94;33.40
72128;DHT22;60000;51.030;7.024;2023-04-03T09:55:50;13.93;32.73
72128;DHT22;60000;51.030;7.024;2023-04-03T09:58:30;13.83;32.48
72128;DHT22;60000;51.030;7.024;2023-04-03T10:01:00;14.04;32.94
72128;DHT22;60000;51.030;7.024;2023-04-03T10:03:34;14.31;33.98
72128;DHT22;60000;51.030;7.024;2023-04-03T10:06:01;14.37;33.31
72128;DHT22;60000;51.030;7.024;2023-04-03T10:08:33;14.61;34.34
72128;DHT22;60000;51.030;7.024;2023-04-03T10:13:33;14.07;33.00
72128;DHT22;60000;51.030;7.024;2023-04-03T10:16:14;14.31;34.51
72128;DHT22;60000;51.030;7.024;2023-04-03T10:18:46;14.49;32.34
72128;DHT22;60000;51.030;7.024;2023-04-03T10:21:44;14.34;33.47
72128;DHT22;60000;51.030;7.024;2023-04-03T10:26:58;14.10;32.25
72128;DHT22;60000;51.030;7.024;2023-04-03T10:29:39;14.25;33.14
72128;DHT22;60000;51.030;7.024;2023-04-03T10:34:46;14.71;32.49
72128;DHT22;60000;51.030;7.024;2023-04-03T10:37:24;14.96;31.38
72128;DHT22;60000;51.030;7.024;2023-04-03T10:45:34;15.33;31.94
72128;DHT22;60000;51.030;7.024;2023-04-03T10:48:07;15.41;29.85
72128;DHT22;60000;51.030;7.024;2023-04-03T10:50:39;15.00;28.37
72128;DHT22;60000;51.030;7.024;2023-04-03T10:53:17;14.88;27.18
72128;DHT22;60000;51.030;7.024;2023-04-03T10:56:03;14.91;29.72
72128;DHT22;60000;51.030;7.024;2023-04-03T10:58:35;14.89;30.04
72128;DHT22;60000;51.030;7.024;2023-04-03T11:01:07;14.86;27.53
72128;DHT22;60000;51.030;7.024;2023-04-03T11:04:04;15.23;29.73
72128;DHT22;60000;51.030;7.024;2023-04-03T11:06:43;15.29;29.46
72128;DHT22;60000;51.030;7.024;2023-04-03T11:09:19;15.47;28.77
72128;DHT22;60000;51.030;7.024;2023-04-03T11:11:47;15.40;27.49
72128;DHT22;60000;51.030;7.024;2023-04-03T11:14:32;15.37;27.46
72128;DHT22;60000;51.030;7.024;2023-04-03T11:22:38;15.74;27.98
72128;DHT22;60000;51.030;7.024;2023-04-03T11:27:59;16.21;28.27
72128;DHT22;60000;51.030;7.024;2023-04-03T11:30:43;15.98;25.83
72128;DHT22;60000;51.030;7.024;2023-04-03T11:35:52;15.72;24.66
72128;DHT22;60000;51.030;7.024;2023-04-03T11:38:26;15.61;25.22
72128;DHT22;60000;51.030;7.024;2023-04-03T11:40:55;15.30;23.32
72128;DHT22;60000;51.030;7.024;2023-04-03T11:43:24;15.31;24.91
72128;DHT22;60000;51.030;7.024;2023-04-03T11:46:03;15.36;26.58
72128;DHT22;60000;51.030;7.024;2023-04-03T11:53:38;15.49;26.78
72128;DHT22;60000;51.030;7.024;2023-04-03T11:56:27;15.39;23.44
72128;DHT22;60000;51.030;7.024;2023-04-03T11:59:19;14.60;24.93
72128;DHT22;60000;51.030;7.024;2023-04-03T12:04:13;13.79;24.21
72128;DHT22;60000;51.030;7.024;2023-04-03T12:11:48;13.48;25.95
72128;DHT22;60000;51.030;7.024;2023-04-03T12:14:15;13.63;24.73
72128;DHT22;60000;51.030;7.024;2023-04-03T12:16:44;13.67;24.44
72128;DHT22;60000;51.030;7.024;2023-04-03T12:24:35;14.04;25.67
72128;DHT22;60000;51.030;7.024;2023-04-03T12:27:24;13.73;25.40
72128;DHT22;60000;51.030;7.024;2023-04-03T12:32:46;13.99;25.99
72128;DHT22;60000;51.030;7.024;2023-04-03T12:46:17;13.75;27.03
72128;DHT22;60000;51.030;7.024;2023-04-03T12:48:52;13.77;26.56
72128;DHT22;60000;51.030;7.024;2023-04-03T12:53:50;13.62;26.67
72128;DHT22;60000;51.030;7.024;2023-04-03T12:56:29;13.77;29.20
72128;DHT22;60000;51.030;7.024;2023-04-03T12:59:13;13.91;27.66
72128;DHT22;60000;51.030;7.024;2023-04-03T13:01:39;13.67;26.59
72128;DHT22;60000;51.030;7.024;2023-04-03T13:04:04;13.53;26.36
72128;DHT22;60000;51.030;7.024;2023-04-03T13:06:33;13.15;27.40
72128;DHT22;60000;51.030;7.024;2023-04-03T13:09:01;13.19;28.26
72128;DHT22;60000;51.030;7.024;2023-04-03T13:11:30;13.28;28.60
72128;DHT22;60000;51.030;7.024;2023-04-03T13:14:04;13.32;28.13
72128;DHT22;60000;51.030;7.024;2023-04-03T13:16:30;13.15;28.07
72128;DHT22;60000;51.030;7.024;2023-04-03T13:18:57;13.26;29.04
72128;DHT22;60000;51.030;7.024;2023-04-03T13:21:33;13.51;29.15
72128;DHT22;60000;51.030;7.024;2023-04-03T13:24:01;13.61;28.20
72128;DHT22;60000;51.030;7.024;2023-04-03T13:26:30;13.42;27.98
72128;DHT22;60000;51.030;7.024;2023-04-03T13:29:00;13.15;28.52
72128;DHT22;60000;51.030;7.024;2023-04-03T13:31:38;13.10;29.90
72128;DHT22;60000;51.030;7.024;2023-04-03T13:34:10;13.00;30.16
72128;DHT22;60000;51.030;7.024;2023-04-03T13:36:39;12.90;30.23
72128;DHT22;60000;51.030;7.024;2023-04-03T13:41:43;13.26;30.94
72128;DHT22;60000;51.030;7.024;2023-04-03T13:44:27;13.05;29.67
72128;DHT22;60000;51.030;7.024;2023-04-03T13:47:15;13.04;31.56
72128;DHT22;60000;51.030;7.024;2023-04-03T13:49:43;13.07;31.03
72128;DHT22;60000;51.030;7.024;2023-04-03T13:54:53;12.68;31.21
72128;DHT22;60000;51.030;7.024;2023-04-03T13:57:26;12.72;31.58
72128;DHT22;60000;51.030;7.024;2023-04-03T13:59:52;12.77;31.62
72128;DHT22;60000;51.030;7.024;2023-04-03T14:02:32;12.76;30.78
72128;DHT22;60000;51.030;7.024;2023-04-03T14:05:00;12.57;30.75
72128;DHT22;60000;51.030;7.024;2023-04-03T14:07:28;12.40;31.35
72128;DHT22;60000;51.030;7.024;2023-04-03T14:09:54;12.15;31.03
72128;DHT22;60000;51.030;7.024;2023-04-03T14:12:31;12.05;31.68
72128;DHT22;60000;51.030;7.024;2023-04-03T14:15:00;12.01;32.54
72128;DHT22;60000;51.030;7.024;2023-04-03T14:17:26;12.16;33.09
72128;DHT22;60000;51.030;7.024;2023-04-03T14:19:55;12.28;31.18
72128;DHT22;60000;51.030;7.024;2023-04-03T14:22:25;12.49;32.54
72128;DHT22;60000;51.030;7.024;2023-04-03T14:24:52;12.46;33.46
72128;DHT22;60000;51.030;7.024;2023-04-03T14:27:29;12.53;32.26
72128;DHT22;60000;51.030;7.024;2023-04-03T14:29:56;12.55;32.39
72128;DHT22;60000;51.030;7.024;2023-04-03T14:32:24;12.66;32.53
72128;DHT22;60000;51.030;7.024;2023-04-03T14:34:50;12.76;31.91
72128;DHT22;60000;51.030;7.024;2023-04-03T14:37:20;12.86;32.46
72128;DHT22;60000;51.030;7.024;2023-04-03T14:39:46;12.97;32.25
72128;DHT22;60000;51.030;7.024;2023-04-03T14:42:24;12.87;32.56
72128;DHT22;60000;51.030;7.024;2023-04-03T14:44:51;13.04;32.40
72128;DHT22;60000;51.030;7.024;2023-04-03T14:47:20;12.93;30.68
72128;DHT22;60000;51.030;7.024;2023-04-03T14:49:46;12.64;32.58
72128;DHT22;60000;51.030;7.024;2023-04-03T14:52:27;12.36;31.66
72128;DHT22;60000;51.030;7.024;2023-04-03T14:54:54;12.26;32.36
72128;DHT22;60000;51.030;7.024;2023-04-03T14:57:22;12.25;31.98
72128;DHT22;60000;51.030;7.024;2023-04-03T14:59:49;12.43;32.16
72128;DHT22;60000;51.030;7.024;2023-04-03T15:02:28;12.47;32.04
72128;DHT22;60000;51.030;7.024;2023-04-03T15:04:55;12.47;33.58
72128;DHT22;60000;51.030;7.024;2023-04-03T15:07:21;12.50;32.74
72128;DHT22;60000;51.030;7.024;2023-04-03T15:09:47;12.57;33.12
72128;DHT22;60000;51.030;7.024;2023-04-03T15:12:13;12.60;33.75
72128;DHT22;60000;51.030;7.024;2023-04-03T15:14:38;12.67;33.31
72128;DHT22;60000;51.030;7.024;2023-04-03T15:17:05;12.59;32.90
72128;DHT22;60000;51.030;7.024;2023-04-03T15:19:40;12.30;31.88
72128;DHT22;60000;51.030;7.024;2023-04-03T15:22:06;12.25;32.46
72128;DHT22;60000;51.030;7.024;2023-04-03T15:24:32;12.19;32.91
72128;DHT22;60000;51.030;7.024;2023-04-03T15:26:58;12.21;33.44
72128;DHT22;60000;51.030;7.024;2023-04-03T15:29:24;12.16;33.86
72128;DHT22;60000;51.030;7.024;2023-04-03T15:31:50;12.21;33.85
72128;DHT22;60000;51.030;7.024;2023-04-03T15:34:18;12.19;34.04
72128;DHT22;60000;51.030;7.024;2023-04-03T15:36:44;12.15;34.26
72128;DHT22;60000;51.030;7.024;2023-04-03T15:39:10;12.11;33.86
72128;DHT22;60000;51.030;7.024;2023-04-03T15:41:35;12.08;33.60
72128;DHT22;60000;51.030;7.024;2023-04-03T15:44:00;12.02;33.74
72128;DHT22;60000;51.030;7.024;2023-04-03T15:46:26;11.98;33.83
72128;DHT22;60000;51.030;7.024;2023-04-03T15:48:51;11.91;34.21
72128;DHT22;60000;51.030;7.024;2023-04-03T15:51:16;11.94;34.78
72128;DHT22;60000;51.030;7.024;2023-04-03T15:53:42;11.94;33.70
72128;DHT22;60000;51.030;7.024;2023-04-03T15:56:08;11.85;34.39
72128;DHT22;60000;51.030;7.024;2023-04-03T15:58:35;11.66;33.18
72128;DHT22;60000;51.030;7.024;2023-04-03T16:01:01;11.47;35.23
72128;DHT22;60000;51.030;7.024;2023-04-03T16:03:26;11.33;33.85
72128;DHT22;60000;51.030;7.024;2023-04-03T16:05:52;11.36;35.58
72128;DHT22;60000;51.030;7.024;2023-04-03T16:08:18;11.30;34.88
72128;DHT22;60000;51.030;7.024;2023-04-03T16:10:44;11.16;34.78
72128;DHT22;60000;51.030;7.024;2023-04-03T16:13:13;11.19;35.69
72128;DHT22;60000;51.030;7.024;2023-04-03T16:15:38;11.19;35.85
72128;DHT22;60000;51.030;7.024;2023-04-03T16:18:04;11.12;36.35
72128;DHT22;60000;51.030;7.024;2023-04-03T16:20:30;11.08;35.76
72128;DHT22;60000;51.030;7.024;2023-04-03T16:22:57;10.93;35.14
72128;DHT22;60000;51.030;7.024;2023-04-03T16:25:23;10.89;35.35
72128;DHT22;60000;51.030;7.024;2023-04-03T16:27:49;10.79;35.52
72128;DHT22;60000;51.030;7.024;2023-04-03T16:30:14;10.72;35.81
72128;DHT22;60000;51.030;7.024;2023-04-03T16:32:40;10.71;37.00
72128;DHT22;60000;51.030;7.024;2023-04-03T16:35:07;10.67;36.20
72128;DHT22;60000;51.030;7.024;2023-04-03T16:37:32;10.64;36.56
72128;DHT22;60000;51.030;7.024;2023-04-03T16:39:58;10.55;37.47
72128;DHT22;60000;51.030;7.024;2023-04-03T16:42:24;10.34;35.59
72128;DHT22;60000;51.030;7.024;2023-04-03T16:44:50;10.27;36.97
72128;DHT22;60000;51.030;7.024;2023-04-03T16:47:16;10.18;37.19
72128;DHT22;60000;51.030;7.024;2023-04-03T16:49:44;10.21;37.43
72128;DHT22;60000;51.030;7.024;2023-04-03T16:52:10;10.14;37.17
72128;DHT22;60000;51.030;7.024;2023-04-03T16:54:37;10.07;37.81
72128;DHT22;60000;51.030;7.024;2023-04-03T16:57:02;9.97;37.86
72128;DHT22;60000;51.030;7.024;2023-04-03T16:59:27;9.87;37.62
72128;DHT22;60000;51.030;7.024;2023-04-03T17:01:53;9.80;37.53
72128;DHT22;60000;51.030;7.024;2023-04-03T17:04:18;9.78;38.02
72128;DHT22;60000;51.030;7.024;2023-04-03T17:06:43;9.73;37.74
72128;DHT22;60000;51.030;7.024;2023-04-03T17:09:09;9.59;37.70